sensor_id;sensor_type;location;lat;lon;timestamp;P1;durP1;ratioP1;P2;durP2;ratioP2
58294;SDS011;45705;55.592;37.460;2022-12-24T00:00:14;23.80;;;13.52;;
58294;SDS011;45705;55.592;37.460;2022-12-24T00:02:40;23.73;;;14.02;;
58294;SDS011;45705;55.592;37.460;2022-12-24T00:05:05;25.17;;;14.52;;
58294;SDS011;45705;55.592;37.460;2022-12-24T00:07:31;23.92;;;14.25;;
58294;SDS011;45705;55.592;37.460;2022-12-24T00:09:57;27.15;;;15.00;;
58294;SDS011;45705;55.592;37.460;2022-12-24T00:12:23;25.83;;;13.90;;
58294;SDS011;45705;55.592;37.460;2022-12-24T00:14:49;21.50;;;11.25;;
58294;SDS011;45705;55.592;37.460;2022-12-24T00:17:14;24.15;;;14.68;;
58294;SDS011;45705;55.592;37.460;2022-12-24T00:19:40;27.88;;;15.25;;
58294;SDS011;45705;55.592;37.460;2022-12-24T00:22:07;30.00;;;15.25;;
58294;SDS011;45705;55.592;37.460;2022-12-24T00:24:33;31.52;;;15.68;;
58294;SDS011;45705;55.592;37.460;2022-12-24T00:26:59;30.02;;;15.55;;
58294;SDS011;45705;55.592;37.460;2022-12-24T00:29:24;31.20;;;16.83;;
58294;SDS011;45705;55.592;37.460;2022-12-24T00:31:50;29.35;;;15.63;;
58294;SDS011;45705;55.592;37.460;2022-12-24T00:34:16;33.22;;;15.48;;
58294;SDS011;45705;55.592;37.460;2022-12-24T00:36:42;33.08;;;16.67;;
58294;SDS011;45705;55.592;37.460;2022-12-24T00:39:08;25.83;;;13.48;;
58294;SDS011;45705;55.592;37.460;2022-12-24T00:41:33;34.38;;;16.52;;
58294;SDS011;45705;55.592;37.460;2022-12-24T00:44:03;31.73;;;16.27;;
58294;SDS011;45705;55.592;37.460;2022-12-24T00:46:30;28.90;;;15.77;;
58294;SDS011;45705;55.592;37.460;2022-12-24T00:48:57;28.92;;;15.98;;
58294;SDS011;45705;55.592;37.460;2022-12-24T00:51:24;28.67;;;16.05;;
58294;SDS011;45705;55.592;37.460;2022-12-24T00:53:50;29.73;;;17.58;;
58294;SDS011;45705;55.592;37.460;2022-12-24T00:56:16;26.05;;;14.95;;
58294;SDS011;45705;55.592;37.460;2022-12-24T00:58:42;33.15;;;17.15;;
58294;SDS011;45705;55.592;37.460;2022-12-24T01:01:08;28.70;;;15.88;;
58294;SDS011;45705;55.592;37.460;2022-12-24T01:03:33;29.42;;;15.93;;
58294;SDS011;45705;55.592;37.460;2022-12-24T01:06:06;27.15;;;15.05;;
58294;SDS011;45705;55.592;37.460;2022-12-24T01:08:36;30.35;;;16.55;;
58294;SDS011;45705;55.592;37.460;2022-12-24T01:11:03;27.88;;;16.08;;
58294;SDS011;45705;55.592;37.460;2022-12-24T01:13:30;27.75;;;14.95;;
58294;SDS011;45705;55.592;37.460;2022-12-24T01:15:56;29.98;;;16.02;;
58294;SDS011;45705;55.592;37.460;2022-12-24T01:18:22;25.33;;;14.55;;
58294;SDS011;45705;55.592;37.460;2022-12-24T01:20:58;26.35;;;15.68;;
58294;SDS011;45705;55.592;37.460;2022-12-24T01:23:27;26.88;;;15.20;;
58294;SDS011;45705;55.592;37.460;2022-12-24T01:25:53;25.60;;;15.10;;
58294;SDS011;45705;55.592;37.460;2022-12-24T01:28:19;28.63;;;15.52;;
58294;SDS011;45705;55.592;37.460;2022-12-24T01:30:46;33.13;;;14.90;;
58294;SDS011;45705;55.592;37.460;2022-12-24T01:33:12;29.83;;;14.93;;
58294;SDS011;45705;55.592;37.460;2022-12-24T01:35:39;31.80;;;16.25;;
58294;SDS011;45705;55.592;37.460;2022-12-24T01:38:06;31.73;;;16.67;;
58294;SDS011;45705;55.592;37.460;2022-12-24T01:40:32;30.65;;;16.60;;
58294;SDS011;45705;55.592;37.460;2022-12-24T01:43:17;31.35;;;16.83;;
58294;SDS011;45705;55.592;37.460;2022-12-24T01:48:34;27.63;;;15.45;;
58294;SDS011;45705;55.592;37.460;2022-12-24T01:53:38;30.95;;;16.17;;
58294;SDS011;45705;55.592;37.460;2022-12-24T01:56:07;27.63;;;15.27;;
58294;SDS011;45705;55.592;37.460;2022-12-24T01:58:36;31.35;;;15.38;;
58294;SDS011;45705;55.592;37.460;2022-12-24T02:01:05;32.20;;;14.90;;
58294;SDS011;45705;55.592;37.460;2022-12-24T02:03:31;29.20;;;15.85;;
58294;SDS011;45705;55.592;37.460;2022-12-24T02:05:57;31.63;;;16.38;;
58294;SDS011;45705;55.592;37.460;2022-12-24T02:08:25;31.55;;;16.40;;
58294;SDS011;45705;55.592;37.460;2022-12-24T02:13:57;32.80;;;16.25;;
58294;SDS011;45705;55.592;37.460;2022-12-24T02:16:31;30.50;;;15.45;;
58294;SDS011;45705;55.592;37.460;2022-12-24T02:31:15;34.63;;;17.05;;
58294;SDS011;45705;55.592;37.460;2022-12-24T02:36:23;33.22;;;16.65;;
58294;SDS011;45705;55.592;37.460;2022-12-24T02:41:29;35.53;;;15.55;;
58294;SDS011;45705;55.592;37.460;2022-12-24T02:44:19;33.83;;;17.05;;
58294;SDS011;45705;55.592;37.460;2022-12-24T02:46:48;32.47;;;17.27;;
58294;SDS011;45705;55.592;37.460;2022-12-24T02:49:15;28.60;;;13.40;;
58294;SDS011;45705;55.592;37.460;2022-12-24T02:51:41;33.42;;;17.27;;
58294;SDS011;45705;55.592;37.460;2022-12-24T02:54:07;35.13;;;18.27;;
58294;SDS011;45705;55.592;37.460;2022-12-24T03:08:02;33.60;;;16.83;;
58294;SDS011;45705;55.592;37.460;2022-12-24T03:13:22;29.98;;;16.10;;
58294;SDS011;45705;55.592;37.460;2022-12-24T03:15:49;32.38;;;16.40;;
58294;SDS011;45705;55.592;37.460;2022-12-24T03:18:23;25.98;;;14.75;;
58294;SDS011;45705;55.592;37.460;2022-12-24T03:21:00;25.77;;;14.70;;
58294;SDS011;45705;55.592;37.460;2022-12-24T03:23:32;29.08;;;15.07;;
58294;SDS011;45705;55.592;37.460;2022-12-24T03:25:59;32.92;;;16.55;;
58294;SDS011;45705;55.592;37.460;2022-12-24T03:28:29;33.47;;;17.63;;
58294;SDS011;45705;55.592;37.460;2022-12-24T03:30:55;32.50;;;15.43;;
58294;SDS011;45705;55.592;37.460;2022-12-24T03:33:24;33.45;;;16.40;;
58294;SDS011;45705;55.592;37.460;2022-12-24T03:35:50;28.90;;;14.98;;
58294;SDS011;45705;55.592;37.460;2022-12-24T03:38:16;34.13;;;17.10;;
58294;SDS011;45705;55.592;37.460;2022-12-24T03:40:41;34.53;;;17.17;;
58294;SDS011;45705;55.592;37.460;2022-12-24T03:43:07;33.17;;;16.13;;
58294;SDS011;45705;55.592;37.460;2022-12-24T03:45:33;31.60;;;18.08;;
58294;SDS011;45705;55.592;37.460;2022-12-24T03:47:59;37.28;;;17.27;;
58294;SDS011;45705;55.592;37.460;2022-12-24T03:50:24;33.70;;;16.45;;
58294;SDS011;45705;55.592;37.460;2022-12-24T03:52:50;33.92;;;17.98;;
58294;SDS011;45705;55.592;37.460;2022-12-24T03:55:16;35.30;;;16.85;;
58294;SDS011;45705;55.592;37.460;2022-12-24T03:57:42;39.08;;;17.98;;
58294;SDS011;45705;55.592;37.460;2022-12-24T04:00:07;34.90;;;17.67;;
58294;SDS011;45705;55.592;37.460;2022-12-24T04:02:39;35.83;;;17.88;;
58294;SDS011;45705;55.592;37.460;2022-12-24T04:05:06;35.55;;;17.90;;
58294;SDS011;45705;55.592;37.460;2022-12-24T04:07:32;37.35;;;17.95;;
58294;SDS011;45705;55.592;37.460;2022-12-24T04:09:58;41.13;;;17.92;;
58294;SDS011;45705;55.592;37.460;2022-12-24T04:12:24;34.65;;;17.13;;
58294;SDS011;45705;55.592;37.460;2022-12-24T04:14:50;43.75;;;19.10;;
58294;SDS011;45705;55.592;37.460;2022-12-24T04:17:16;41.13;;;18.58;;
58294;SDS011;45705;55.592;37.460;2022-12-24T04:19:42;45.20;;;19.50;;
58294;SDS011;45705;55.592;37.460;2022-12-24T04:22:07;43.55;;;19.88;;
58294;SDS011;45705;55.592;37.460;2022-12-24T04:24:33;45.30;;;18.83;;
58294;SDS011;45705;55.592;37.460;2022-12-24T04:26:59;44.38;;;20.00;;
58294;SDS011;45705;55.592;37.460;2022-12-24T04:29:24;41.00;;;19.38;;
58294;SDS011;45705;55.592;37.460;2022-12-24T04:31:50;37.85;;;18.27;;
58294;SDS011;45705;55.592;37.460;2022-12-24T04:34:16;38.75;;;19.17;;
58294;SDS011;45705;55.592;37.460;2022-12-24T04:36:42;44.92;;;19.58;;
58294;SDS011;45705;55.592;37.460;2022-12-24T04:39:07;44.92;;;20.55;;
58294;SDS011;45705;55.592;37.460;2022-12-24T04:41:33;44.20;;;19.80;;
58294;SDS011;45705;55.592;37.460;2022-12-24T04:43:59;34.13;;;14.90;;
58294;SDS011;45705;55.592;37.460;2022-12-24T04:46:25;39.55;;;17.73;;
58294;SDS011;45705;55.592;37.460;2022-12-24T04:48:56;43.95;;;19.50;;
58294;SDS011;45705;55.592;37.460;2022-12-24T04:51:23;41.38;;;20.00;;
58294;SDS011;45705;55.592;37.460;2022-12-24T04:53:51;43.33;;;19.58;;
58294;SDS011;45705;55.592;37.460;2022-12-24T04:56:18;39.92;;;19.98;;
58294;SDS011;45705;55.592;37.460;2022-12-24T04:58:46;50.00;;;20.10;;
58294;SDS011;45705;55.592;37.460;2022-12-24T05:01:13;39.00;;;17.70;;
58294;SDS011;45705;55.592;37.460;2022-12-24T05:03:45;44.83;;;20.92;;
58294;SDS011;45705;55.592;37.460;2022-12-24T05:06:12;58.10;;;20.88;;
58294;SDS011;45705;55.592;37.460;2022-12-24T05:08:39;42.88;;;19.83;;
58294;SDS011;45705;55.592;37.460;2022-12-24T05:11:05;44.13;;;21.00;;
58294;SDS011;45705;55.592;37.460;2022-12-24T05:13:31;54.55;;;21.30;;
58294;SDS011;45705;55.592;37.460;2022-12-24T05:15:58;39.20;;;18.10;;
58294;SDS011;45705;55.592;37.460;2022-12-24T05:18:24;49.58;;;21.58;;
58294;SDS011;45705;55.592;37.460;2022-12-24T05:20:50;45.22;;;19.67;;
58294;SDS011;45705;55.592;37.460;2022-12-24T05:23:19;49.97;;;18.40;;
58294;SDS011;45705;55.592;37.460;2022-12-24T05:26:10;44.92;;;20.27;;
58294;SDS011;45705;55.592;37.460;2022-12-24T05:28:47;55.40;;;21.70;;
58294;SDS011;45705;55.592;37.460;2022-12-24T05:31:13;46.65;;;20.52;;
58294;SDS011;45705;55.592;37.460;2022-12-24T05:33:39;49.50;;;20.85;;
58294;SDS011;45705;55.592;37.460;2022-12-24T05:36:05;52.35;;;21.92;;
58294;SDS011;45705;55.592;37.460;2022-12-24T05:38:31;50.10;;;20.05;;
58294;SDS011;45705;55.592;37.460;2022-12-24T05:40:57;41.22;;;16.50;;
58294;SDS011;45705;55.592;37.460;2022-12-24T05:43:22;51.67;;;19.05;;
58294;SDS011;45705;55.592;37.460;2022-12-24T05:45:48;39.17;;;15.98;;
58294;SDS011;45705;55.592;37.460;2022-12-24T05:48:14;43.55;;;19.98;;
58294;SDS011;45705;55.592;37.460;2022-12-24T05:50:39;48.88;;;20.63;;
58294;SDS011;45705;55.592;37.460;2022-12-24T05:53:05;42.67;;;17.00;;
58294;SDS011;45705;55.592;37.460;2022-12-24T05:55:32;48.60;;;21.20;;
58294;SDS011;45705;55.592;37.460;2022-12-24T05:57:58;39.22;;;19.05;;
58294;SDS011;45705;55.592;37.460;2022-12-24T06:00:24;44.67;;;19.17;;
58294;SDS011;45705;55.592;37.460;2022-12-24T06:02:50;44.88;;;19.15;;
58294;SDS011;45705;55.592;37.460;2022-12-24T06:05:15;39.13;;;17.08;;
58294;SDS011;45705;55.592;37.460;2022-12-24T06:07:41;55.78;;;20.08;;
58294;SDS011;45705;55.592;37.460;2022-12-24T06:10:07;49.25;;;18.20;;
58294;SDS011;45705;55.592;37.460;2022-12-24T06:12:33;49.88;;;19.60;;
58294;SDS011;45705;55.592;37.460;2022-12-24T06:14:59;45.15;;;19.08;;
58294;SDS011;45705;55.592;37.460;2022-12-24T06:17:25;50.80;;;19.20;;
58294;SDS011;45705;55.592;37.460;2022-12-24T06:19:51;51.30;;;19.55;;
58294;SDS011;45705;55.592;37.460;2022-12-24T06:22:16;51.58;;;17.80;;
58294;SDS011;45705;55.592;37.460;2022-12-24T06:24:42;58.88;;;20.92;;
58294;SDS011;45705;55.592;37.460;2022-12-24T06:27:08;44.67;;;17.35;;
58294;SDS011;45705;55.592;37.460;2022-12-24T06:29:34;61.35;;;20.05;;
58294;SDS011;45705;55.592;37.460;2022-12-24T06:31:59;65.28;;;21.25;;
58294;SDS011;45705;55.592;37.460;2022-12-24T06:34:25;49.88;;;20.02;;
58294;SDS011;45705;55.592;37.460;2022-12-24T06:36:51;46.67;;;16.45;;
58294;SDS011;45705;55.592;37.460;2022-12-24T06:39:17;53.95;;;19.08;;
58294;SDS011;45705;55.592;37.460;2022-12-24T06:41:42;46.97;;;18.73;;
58294;SDS011;45705;55.592;37.460;2022-12-24T06:44:08;57.58;;;20.45;;
58294;SDS011;45705;55.592;37.460;2022-12-24T06:46:34;53.60;;;19.80;;
58294;SDS011;45705;55.592;37.460;2022-12-24T06:49:00;65.13;;;21.75;;
58294;SDS011;45705;55.592;37.460;2022-12-24T06:51:26;60.72;;;20.80;;
58294;SDS011;45705;55.592;37.460;2022-12-24T06:53:51;53.35;;;18.45;;
58294;SDS011;45705;55.592;37.460;2022-12-24T06:56:18;46.65;;;17.10;;
58294;SDS011;45705;55.592;37.460;2022-12-24T06:58:44;52.17;;;18.15;;
58294;SDS011;45705;55.592;37.460;2022-12-24T07:01:11;53.10;;;20.05;;
58294;SDS011;45705;55.592;37.460;2022-12-24T07:03:39;68.90;;;20.83;;
58294;SDS011;45705;55.592;37.460;2022-12-24T07:06:06;56.92;;;18.60;;
58294;SDS011;45705;55.592;37.460;2022-12-24T07:08:35;65.28;;;20.58;;
58294;SDS011;45705;55.592;37.460;2022-12-24T07:11:01;51.45;;;21.33;;
58294;SDS011;45705;55.592;37.460;2022-12-24T07:13:26;54.90;;;22.10;;
58294;SDS011;45705;55.592;37.460;2022-12-24T07:15:57;57.60;;;21.75;;
58294;SDS011;45705;55.592;37.460;2022-12-24T07:18:23;52.90;;;22.88;;
58294;SDS011;45705;55.592;37.460;2022-12-24T07:20:49;49.08;;;18.75;;
58294;SDS011;45705;55.592;37.460;2022-12-24T07:23:15;50.90;;;21.65;;
58294;SDS011;45705;55.592;37.460;2022-12-24T07:25:41;49.08;;;19.55;;
58294;SDS011;45705;55.592;37.460;2022-12-24T07:28:07;46.42;;;18.85;;
58294;SDS011;45705;55.592;37.460;2022-12-24T07:30:33;42.13;;;16.98;;
58294;SDS011;45705;55.592;37.460;2022-12-24T07:32:59;45.63;;;19.30;;
58294;SDS011;45705;55.592;37.460;2022-12-24T07:35:25;41.45;;;20.58;;
58294;SDS011;45705;55.592;37.460;2022-12-24T07:37:51;42.40;;;18.27;;
58294;SDS011;45705;55.592;37.460;2022-12-24T07:40:16;49.33;;;20.15;;
58294;SDS011;45705;55.592;37.460;2022-12-24T07:42:42;40.55;;;18.95;;
58294;SDS011;45705;55.592;37.460;2022-12-24T07:45:08;39.63;;;15.68;;
58294;SDS011;45705;55.592;37.460;2022-12-24T07:47:34;41.97;;;20.50;;
58294;SDS011;45705;55.592;37.460;2022-12-24T07:50:00;37.92;;;17.10;;
58294;SDS011;45705;55.592;37.460;2022-12-24T07:52:26;35.60;;;16.05;;
58294;SDS011;45705;55.592;37.460;2022-12-24T07:54:52;38.55;;;17.23;;
58294;SDS011;45705;55.592;37.460;2022-12-24T07:57:18;34.90;;;16.95;;
58294;SDS011;45705;55.592;37.460;2022-12-24T07:59:43;38.78;;;17.23;;
58294;SDS011;45705;55.592;37.460;2022-12-24T08:02:10;30.13;;;15.45;;
58294;SDS011;45705;55.592;37.460;2022-12-24T08:04:36;37.67;;;16.70;;
58294;SDS011;45705;55.592;37.460;2022-12-24T08:07:02;25.42;;;12.48;;
58294;SDS011;45705;55.592;37.460;2022-12-24T08:09:33;30.50;;;15.25;;
58294;SDS011;45705;55.592;37.460;2022-12-24T08:11:59;32.40;;;16.15;;
58294;SDS011;45705;55.592;37.460;2022-12-24T08:14:27;24.88;;;13.32;;
58294;SDS011;45705;55.592;37.460;2022-12-24T08:16:55;37.13;;;16.25;;
58294;SDS011;45705;55.592;37.460;2022-12-24T08:19:21;29.90;;;16.10;;
58294;SDS011;45705;55.592;37.460;2022-12-24T08:21:47;35.58;;;15.32;;
58294;SDS011;45705;55.592;37.460;2022-12-24T08:24:13;32.03;;;16.25;;
58294;SDS011;45705;55.592;37.460;2022-12-24T08:26:38;30.88;;;15.18;;
58294;SDS011;45705;55.592;37.460;2022-12-24T08:29:04;29.88;;;16.33;;
58294;SDS011;45705;55.592;37.460;2022-12-24T08:31:30;32.95;;;15.10;;
58294;SDS011;45705;55.592;37.460;2022-12-24T08:34:04;29.63;;;14.90;;
58294;SDS011;45705;55.592;37.460;2022-12-24T08:36:32;28.60;;;14.60;;
58294;SDS011;45705;55.592;37.460;2022-12-24T08:38:58;24.23;;;12.25;;
58294;SDS011;45705;55.592;37.460;2022-12-24T08:41:31;30.35;;;14.85;;
58294;SDS011;45705;55.592;37.460;2022-12-24T08:43:57;26.65;;;13.30;;
58294;SDS011;45705;55.592;37.460;2022-12-24T08:46:23;25.40;;;12.30;;
58294;SDS011;45705;55.592;37.460;2022-12-24T08:48:48;23.92;;;12.38;;
58294;SDS011;45705;55.592;37.460;2022-12-24T08:51:14;26.95;;;13.13;;
58294;SDS011;45705;55.592;37.460;2022-12-24T08:53:40;29.23;;;14.60;;
58294;SDS011;45705;55.592;37.460;2022-12-24T08:56:07;29.38;;;14.82;;
58294;SDS011;45705;55.592;37.460;2022-12-24T08:58:33;35.85;;;14.77;;
58294;SDS011;45705;55.592;37.460;2022-12-24T09:01:00;25.00;;;13.45;;
58294;SDS011;45705;55.592;37.460;2022-12-24T09:03:26;26.08;;;13.85;;
58294;SDS011;45705;55.592;37.460;2022-12-24T09:05:52;23.38;;;12.70;;
58294;SDS011;45705;55.592;37.460;2022-12-24T09:08:18;22.10;;;11.90;;
58294;SDS011;45705;55.592;37.460;2022-12-24T09:10:45;23.10;;;13.60;;
58294;SDS011;45705;55.592;37.460;2022-12-24T09:13:11;28.38;;;13.45;;
58294;SDS011;45705;55.592;37.460;2022-12-24T09:15:36;27.63;;;14.40;;
58294;SDS011;45705;55.592;37.460;2022-12-24T09:18:02;29.27;;;14.82;;
58294;SDS011;45705;55.592;37.460;2022-12-24T09:20:28;25.23;;;13.02;;
58294;SDS011;45705;55.592;37.460;2022-12-24T09:22:54;28.15;;;15.80;;
58294;SDS011;45705;55.592;37.460;2022-12-24T09:25:19;27.05;;;14.80;;
58294;SDS011;45705;55.592;37.460;2022-12-24T09:27:45;30.40;;;16.63;;
58294;SDS011;45705;55.592;37.460;2022-12-24T09:30:11;32.13;;;17.42;;
58294;SDS011;45705;55.592;37.460;2022-12-24T09:32:37;28.17;;;14.13;;
58294;SDS011;45705;55.592;37.460;2022-12-24T09:35:04;30.55;;;16.45;;
58294;SDS011;45705;55.592;37.460;2022-12-24T09:37:31;31.95;;;15.45;;
58294;SDS011;45705;55.592;37.460;2022-12-24T09:39:56;28.38;;;15.07;;
58294;SDS011;45705;55.592;37.460;2022-12-24T09:45:37;31.80;;;16.58;;
58294;SDS011;45705;55.592;37.460;2022-12-24T09:53:32;26.55;;;14.05;;
58294;SDS011;45705;55.592;37.460;2022-12-24T09:56:13;26.50;;;14.52;;
58294;SDS011;45705;55.592;37.460;2022-12-24T09:58:44;26.48;;;14.25;;
58294;SDS011;45705;55.592;37.460;2022-12-24T10:01:13;22.73;;;13.63;;
58294;SDS011;45705;55.592;37.460;2022-12-24T10:03:41;28.17;;;15.23;;
58294;SDS011;45705;55.592;37.460;2022-12-24T10:06:11;24.15;;;14.18;;
58294;SDS011;45705;55.592;37.460;2022-12-24T10:25:45;28.88;;;14.48;;
58294;SDS011;45705;55.592;37.460;2022-12-24T10:28:18;29.02;;;14.48;;
58294;SDS011;45705;55.592;37.460;2022-12-24T10:30:48;27.05;;;14.18;;
58294;SDS011;45705;55.592;37.460;2022-12-24T10:33:21;24.45;;;13.93;;
58294;SDS011;45705;55.592;37.460;2022-12-24T10:36:03;27.50;;;13.52;;
58294;SDS011;45705;55.592;37.460;2022-12-24T10:38:32;24.40;;;13.65;;
58294;SDS011;45705;55.592;37.460;2022-12-24T10:40:58;26.40;;;14.30;;
58294;SDS011;45705;55.592;37.460;2022-12-24T10:43:26;27.15;;;14.27;;
58294;SDS011;45705;55.592;37.460;2022-12-24T10:45:55;23.52;;;13.52;;
58294;SDS011;45705;55.592;37.460;2022-12-24T10:48:27;25.25;;;13.80;;
58294;SDS011;45705;55.592;37.460;2022-12-24T10:51:01;25.58;;;13.10;;
58294;SDS011;45705;55.592;37.460;2022-12-24T10:53:31;27.35;;;13.05;;
58294;SDS011;45705;55.592;37.460;2022-12-24T10:56:03;23.58;;;13.63;;
58294;SDS011;45705;55.592;37.460;2022-12-24T10:58:31;23.35;;;13.25;;
58294;SDS011;45705;55.592;37.460;2022-12-24T11:00:58;24.38;;;14.35;;
58294;SDS011;45705;55.592;37.460;2022-12-24T11:03:28;23.95;;;12.57;;
58294;SDS011;45705;55.592;37.460;2022-12-24T11:05:58;23.75;;;11.95;;
58294;SDS011;45705;55.592;37.460;2022-12-24T11:08:29;20.27;;;10.13;;
58294;SDS011;45705;55.592;37.460;2022-12-24T11:10:56;21.00;;;12.02;;
58294;SDS011;45705;55.592;37.460;2022-12-24T11:13:27;20.15;;;11.18;;
58294;SDS011;45705;55.592;37.460;2022-12-24T11:16:03;19.85;;;11.02;;
58294;SDS011;45705;55.592;37.460;2022-12-24T11:18:32;18.08;;;10.60;;
58294;SDS011;45705;55.592;37.460;2022-12-24T11:21:01;22.15;;;11.98;;
58294;SDS011;45705;55.592;37.460;2022-12-24T11:23:28;20.88;;;10.52;;
58294;SDS011;45705;55.592;37.460;2022-12-24T11:25:55;20.23;;;11.75;;
58294;SDS011;45705;55.592;37.460;2022-12-24T11:28:24;25.05;;;11.40;;
58294;SDS011;45705;55.592;37.460;2022-12-24T11:33:28;17.17;;;10.48;;
58294;SDS011;45705;55.592;37.460;2022-12-24T11:35:56;17.00;;;10.38;;
58294;SDS011;45705;55.592;37.460;2022-12-24T11:38:29;17.80;;;10.80;;
58294;SDS011;45705;55.592;37.460;2022-12-24T11:40:57;17.05;;;9.75;;
58294;SDS011;45705;55.592;37.460;2022-12-24T11:43:23;12.25;;;8.68;;
58294;SDS011;45705;55.592;37.460;2022-12-24T11:45:53;14.30;;;9.40;;
58294;SDS011;45705;55.592;37.460;2022-12-24T11:48:24;13.30;;;9.20;;
58294;SDS011;45705;55.592;37.460;2022-12-24T11:51:03;15.85;;;9.07;;
58294;SDS011;45705;55.592;37.460;2022-12-24T11:53:35;13.23;;;8.82;;
58294;SDS011;45705;55.592;37.460;2022-12-24T11:56:15;17.83;;;9.38;;
58294;SDS011;45705;55.592;37.460;2022-12-24T11:58:55;19.10;;;10.18;;
58294;SDS011;45705;55.592;37.460;2022-12-24T12:04:29;14.60;;;10.35;;
58294;SDS011;45705;55.592;37.460;2022-12-24T12:07:00;16.08;;;9.18;;
58294;SDS011;45705;55.592;37.460;2022-12-24T12:09:36;17.02;;;9.52;;
58294;SDS011;45705;55.592;37.460;2022-12-24T12:12:06;17.27;;;10.13;;
58294;SDS011;45705;55.592;37.460;2022-12-24T12:14:47;17.60;;;10.23;;
58294;SDS011;45705;55.592;37.460;2022-12-24T12:17:35;16.85;;;10.45;;
58294;SDS011;45705;55.592;37.460;2022-12-24T12:20:22;14.75;;;9.15;;
58294;SDS011;45705;55.592;37.460;2022-12-24T12:23:04;15.93;;;10.10;;
58294;SDS011;45705;55.592;37.460;2022-12-24T12:25:53;15.50;;;9.27;;
58294;SDS011;45705;55.592;37.460;2022-12-24T12:28:29;13.98;;;8.57;;
58294;SDS011;45705;55.592;37.460;2022-12-24T12:31:05;12.53;;;8.40;;
58294;SDS011;45705;55.592;37.460;2022-12-24T12:33:43;13.00;;;8.35;;
58294;SDS011;45705;55.592;37.460;2022-12-24T12:36:15;12.80;;;8.35;;
58294;SDS011;45705;55.592;37.460;2022-12-24T12:38:45;14.35;;;8.10;;
58294;SDS011;45705;55.592;37.460;2022-12-24T12:52:09;10.30;;;7.32;;
58294;SDS011;45705;55.592;37.460;2022-12-24T12:55:05;12.23;;;7.10;;
58294;SDS011;45705;55.592;37.460;2022-12-24T12:57:45;11.00;;;7.22;;
58294;SDS011;45705;55.592;37.460;2022-12-24T13:00:14;12.27;;;7.72;;
58294;SDS011;45705;55.592;37.460;2022-12-24T13:13:35;12.07;;;7.65;;
58294;SDS011;45705;55.592;37.460;2022-12-24T13:17:00;12.07;;;7.78;;
58294;SDS011;45705;55.592;37.460;2022-12-24T13:19:29;11.15;;;7.38;;
58294;SDS011;45705;55.592;37.460;2022-12-24T13:22:14;11.27;;;7.10;;
58294;SDS011;45705;55.592;37.460;2022-12-24T13:24:48;11.77;;;8.27;;
58294;SDS011;45705;55.592;37.460;2022-12-24T13:27:18;12.25;;;7.95;;
58294;SDS011;45705;55.592;37.460;2022-12-24T13:30:45;13.15;;;8.30;;
58294;SDS011;45705;55.592;37.460;2022-12-24T13:33:00;10.25;;;7.38;;
58294;SDS011;45705;55.592;37.460;2022-12-24T13:35:27;14.30;;;8.13;;
58294;SDS011;45705;55.592;37.460;2022-12-24T13:37:57;10.75;;;7.65;;
58294;SDS011;45705;55.592;37.460;2022-12-24T13:40:53;12.57;;;8.23;;
58294;SDS011;45705;55.592;37.460;2022-12-24T13:43:20;16.83;;;9.55;;
58294;SDS011;45705;55.592;37.460;2022-12-24T13:45:49;18.08;;;9.30;;
58294;SDS011;45705;55.592;37.460;2022-12-24T13:48:32;9.60;;;7.40;;
58294;SDS011;45705;55.592;37.460;2022-12-24T13:51:16;10.65;;;7.70;;
58294;SDS011;45705;55.592;37.460;2022-12-24T13:53:46;14.00;;;7.90;;
58294;SDS011;45705;55.592;37.460;2022-12-24T13:58:43;9.65;;;7.55;;
58294;SDS011;45705;55.592;37.460;2022-12-24T14:01:17;13.57;;;7.30;;
58294;SDS011;45705;55.592;37.460;2022-12-24T14:03:46;15.07;;;8.70;;
58294;SDS011;45705;55.592;37.460;2022-12-24T14:08:44;14.32;;;8.02;;
58294;SDS011;45705;55.592;37.460;2022-12-24T14:11:23;14.38;;;8.75;;
58294;SDS011;45705;55.592;37.460;2022-12-24T14:14:00;13.25;;;8.85;;
58294;SDS011;45705;55.592;37.460;2022-12-24T14:16:44;15.18;;;8.60;;
58294;SDS011;45705;55.592;37.460;2022-12-24T14:21:47;13.60;;;8.13;;
58294;SDS011;45705;55.592;37.460;2022-12-24T14:24:22;12.90;;;8.75;;
58294;SDS011;45705;55.592;37.460;2022-12-24T14:27:14;14.27;;;9.35;;
58294;SDS011;45705;55.592;37.460;2022-12-24T14:29:51;11.93;;;8.60;;
58294;SDS011;45705;55.592;37.460;2022-12-24T14:32:32;16.48;;;9.27;;
58294;SDS011;45705;55.592;37.460;2022-12-24T14:35:05;12.93;;;8.88;;
58294;SDS011;45705;55.592;37.460;2022-12-24T14:37:31;16.55;;;9.80;;
58294;SDS011;45705;55.592;37.460;2022-12-24T14:39:57;13.68;;;9.68;;
58294;SDS011;45705;55.592;37.460;2022-12-24T14:47:52;15.25;;;9.02;;
58294;SDS011;45705;55.592;37.460;2022-12-24T14:50:42;14.27;;;9.18;;
58294;SDS011;45705;55.592;37.460;2022-12-24T14:56:16;14.60;;;8.98;;
58294;SDS011;45705;55.592;37.460;2022-12-24T15:01:43;14.77;;;8.70;;
58294;SDS011;45705;55.592;37.460;2022-12-24T15:04:03;14.90;;;9.30;;
58294;SDS011;45705;55.592;37.460;2022-12-24T15:06:30;19.83;;;8.80;;
58294;SDS011;45705;55.592;37.460;2022-12-24T15:08:58;14.20;;;9.35;;
58294;SDS011;45705;55.592;37.460;2022-12-24T15:11:25;18.33;;;11.05;;
58294;SDS011;45705;55.592;37.460;2022-12-24T15:13:54;13.48;;;9.85;;
58294;SDS011;45705;55.592;37.460;2022-12-24T15:16:32;17.25;;;10.52;;
58294;SDS011;45705;55.592;37.460;2022-12-24T15:21:51;14.23;;;9.35;;
58294;SDS011;45705;55.592;37.460;2022-12-24T15:24:25;16.38;;;9.40;;
58294;SDS011;45705;55.592;37.460;2022-12-24T15:27:02;14.30;;;9.85;;
58294;SDS011;45705;55.592;37.460;2022-12-24T15:29:45;17.75;;;10.05;;
58294;SDS011;45705;55.592;37.460;2022-12-24T15:32:13;16.70;;;11.00;;
58294;SDS011;45705;55.592;37.460;2022-12-24T15:34:42;17.40;;;10.60;;
58294;SDS011;45705;55.592;37.460;2022-12-24T15:42:06;16.70;;;9.52;;
58294;SDS011;45705;55.592;37.460;2022-12-24T15:44:40;14.60;;;9.30;;
58294;SDS011;45705;55.592;37.460;2022-12-24T15:47:15;18.38;;;9.95;;
58294;SDS011;45705;55.592;37.460;2022-12-24T15:49:45;15.18;;;9.98;;
58294;SDS011;45705;55.592;37.460;2022-12-24T15:52:14;16.38;;;9.40;;
58294;SDS011;45705;55.592;37.460;2022-12-24T15:54:46;15.63;;;9.63;;
58294;SDS011;45705;55.592;37.460;2022-12-24T15:57:14;14.45;;;9.50;;
58294;SDS011;45705;55.592;37.460;2022-12-24T15:59:56;32.85;;;10.57;;
58294;SDS011;45705;55.592;37.460;2022-12-24T16:05:16;15.45;;;10.60;;
58294;SDS011;45705;55.592;37.460;2022-12-24T16:08:04;16.33;;;9.88;;
58294;SDS011;45705;55.592;37.460;2022-12-24T16:13:30;13.88;;;8.60;;
58294;SDS011;45705;55.592;37.460;2022-12-24T16:16:11;16.05;;;9.25;;
58294;SDS011;45705;55.592;37.460;2022-12-24T16:18:46;14.68;;;9.13;;
58294;SDS011;45705;55.592;37.460;2022-12-24T16:23:57;14.60;;;8.68;;
58294;SDS011;45705;55.592;37.460;2022-12-24T16:26:30;14.18;;;8.40;;
58294;SDS011;45705;55.592;37.460;2022-12-24T16:28:57;15.85;;;9.23;;
58294;SDS011;45705;55.592;37.460;2022-12-24T16:31:30;11.32;;;8.10;;